createdAt,value
2022-10-12T00:00:22.684Z,14.90
2022-10-12T00:02:50.617Z,14.90
2022-10-12T00:05:25.981Z,14.90
2022-10-12T00:08:00.096Z,14.90
2022-10-12T00:10:27.461Z,14.80
2022-10-12T00:13:02.086Z,14.80
2022-10-12T00:15:29.296Z,14.80
2022-10-12T00:18:10.151Z,14.80
2022-10-12T00:20:43.856Z,14.80
2022-10-12T00:23:18.166Z,14.80
2022-10-12T00:25:45.548Z,14.80
2022-10-12T00:28:19.130Z,14.80
2022-10-12T00:30:46.477Z,14.80
2022-10-12T00:33:20.535Z,14.80
2022-10-12T00:35:47.746Z,14.80
2022-10-12T00:38:22.128Z,14.80
2022-10-12T00:40:50.002Z,14.70
2022-10-12T00:43:43.437Z,14.70
2022-10-12T00:46:22.507Z,14.70
2022-10-12T00:49:04.136Z,14.70
2022-10-12T00:51:31.346Z,14.70
2022-10-12T00:54:13.046Z,14.70
2022-10-12T00:56:45.424Z,14.70
2022-10-12T00:59:25.096Z,14.70
2022-10-12T01:01:53.008Z,14.70
2022-10-12T01:04:22.479Z,14.70
2022-10-12T01:06:57.026Z,14.70
2022-10-12T01:09:24.216Z,14.60
2022-10-12T01:11:58.801Z,14.60
2022-10-12T01:14:26.716Z,14.60
2022-10-12T01:17:22.111Z,14.60
2022-10-12T01:20:21.332Z,14.60
2022-10-12T01:23:24.946Z,14.50
2022-10-12T01:26:29.216Z,14.50
2022-10-12T01:29:19.179Z,14.50
2022-10-12T01:32:11.145Z,14.50
2022-10-12T01:35:04.784Z,14.50
2022-10-12T01:37:41.294Z,14.40
2022-10-12T01:40:24.630Z,14.40
2022-10-12T01:43:00.126Z,14.40
2022-10-12T01:45:27.708Z,14.30
2022-10-12T01:48:02.675Z,14.30
2022-10-12T01:50:45.645Z,14.30
2022-10-12T01:53:44.106Z,14.30
2022-10-12T01:56:33.703Z,14.30
2022-10-12T01:59:35.216Z,14.30
2022-10-12T02:02:12.254Z,14.30
2022-10-12T02:05:10.234Z,14.30
2022-10-12T02:07:52.205Z,14.20
2022-10-12T02:10:40.138Z,14.20
2022-10-12T02:13:12.404Z,14.20
2022-10-12T02:15:50.155Z,14.10
2022-10-12T02:18:39.164Z,14.10
2022-10-12T02:21:15.136Z,14.10
2022-10-12T02:23:51.188Z,14.10
2022-10-12T02:26:20.073Z,14.10
2022-10-12T02:28:57.176Z,14.10
2022-10-12T02:32:03.074Z,14.10
2022-10-12T02:35:09.286Z,14.10
2022-10-12T02:37:49.444Z,14.10
2022-10-12T02:40:47.256Z,14.00
2022-10-12T02:43:45.706Z,14.00
2022-10-12T02:46:21.364Z,14.10
2022-10-12T02:48:50.295Z,14.10
2022-10-12T02:51:26.376Z,14.10
2022-10-12T02:53:54.154Z,14.10
2022-10-12T02:56:28.195Z,14.10
2022-10-12T02:58:56.236Z,14.10
2022-10-12T03:01:30.699Z,14.00
2022-10-12T03:03:58.395Z,14.00
2022-10-12T03:06:32.197Z,14.00
2022-10-12T03:08:59.715Z,14.00
2022-10-12T03:11:33.245Z,14.00
2022-10-12T03:14:00.614Z,14.00
2022-10-12T03:16:34.335Z,13.90
2022-10-12T03:19:17.544Z,13.90
2022-10-12T03:21:51.155Z,13.90
2022-10-12T03:24:25.246Z,13.90
2022-10-12T03:26:53.034Z,13.80
2022-10-12T03:29:27.344Z,13.80
2022-10-12T03:31:55.124Z,13.80
2022-10-12T03:34:29.294Z,13.80
2022-10-12T03:37:03.565Z,13.70
2022-10-12T03:39:30.836Z,13.70
2022-10-12T03:42:04.194Z,13.70
2022-10-12T03:44:31.704Z,13.60
2022-10-12T03:47:07.176Z,13.60
2022-10-12T03:49:34.595Z,13.60
2022-10-12T03:52:09.154Z,13.60
2022-10-12T03:54:36.874Z,13.60
2022-10-12T03:57:11.356Z,13.50
2022-10-12T03:59:45.226Z,13.50
2022-10-12T04:02:19.211Z,13.50
2022-10-12T04:04:53.215Z,13.50
2022-10-12T04:07:20.463Z,13.50
2022-10-12T04:09:55.236Z,13.60
2022-10-12T04:12:22.581Z,13.60
2022-10-12T04:14:56.113Z,13.60
2022-10-12T04:17:30.385Z,13.60
2022-10-12T04:20:12.240Z,13.60
2022-10-12T04:22:40.196Z,13.70
2022-10-12T04:25:14.385Z,13.80
2022-10-12T04:27:41.631Z,13.80
2022-10-12T04:30:16.000Z,13.80
2022-10-12T04:32:43.215Z,13.90
2022-10-12T04:35:18.311Z,13.90
2022-10-12T04:37:45.455Z,13.90
2022-10-12T04:40:19.116Z,13.90
2022-10-12T04:42:53.365Z,14.00
2022-10-12T04:45:21.044Z,14.00
2022-10-12T04:47:56.207Z,14.00
2022-10-12T04:50:29.012Z,14.10
2022-10-12T04:53:04.204Z,14.10
2022-10-12T04:55:31.454Z,14.10
2022-10-12T04:58:06.341Z,14.10
2022-10-12T05:00:40.173Z,14.20
2022-10-12T05:03:07.923Z,14.20
2022-10-12T05:05:43.183Z,14.20
2022-10-12T05:08:10.406Z,14.30
2022-10-12T05:10:44.156Z,14.30
2022-10-12T05:13:18.375Z,14.30
2022-10-12T05:15:45.880Z,14.30
2022-10-12T05:18:20.480Z,14.30
2022-10-12T05:21:01.356Z,14.30
2022-10-12T05:23:28.749Z,14.30
2022-10-12T05:26:03.106Z,14.30
2022-10-12T05:28:41.013Z,14.40
2022-10-12T05:31:09.855Z,14.40
2022-10-12T05:33:44.390Z,14.40
2022-10-12T05:36:11.575Z,14.40
2022-10-12T05:38:42.325Z,14.40
2022-10-12T05:41:16.178Z,14.40
2022-10-12T05:43:43.542Z,14.40
2022-10-12T05:46:18.133Z,14.40
2022-10-12T05:48:52.285Z,14.40
2022-10-12T05:51:19.399Z,14.40
2022-10-12T05:53:53.290Z,14.40
2022-10-12T05:56:20.696Z,14.40
2022-10-12T05:58:55.160Z,14.40
2022-10-12T06:01:23.262Z,14.40
2022-10-12T06:03:57.205Z,14.50
2022-10-12T06:06:24.401Z,14.40
2022-10-12T06:08:51.625Z,14.50
2022-10-12T06:11:25.141Z,14.50
2022-10-12T06:13:54.556Z,14.50
2022-10-12T06:16:30.145Z,14.60
2022-10-12T06:19:17.156Z,14.60
2022-10-12T06:21:44.296Z,14.60
2022-10-12T06:24:18.245Z,14.60
2022-10-12T06:26:45.572Z,14.60
2022-10-12T06:29:19.252Z,14.60
2022-10-12T06:31:51.380Z,14.60
2022-10-12T06:34:29.197Z,14.60
2022-10-12T06:37:00.927Z,14.70
2022-10-12T06:39:36.180Z,14.70
2022-10-12T06:42:10.250Z,14.60
2022-10-12T06:44:44.415Z,14.70
2022-10-12T06:47:18.385Z,14.70
2022-10-12T06:49:52.166Z,14.70
2022-10-12T06:52:26.085Z,14.80
2022-10-12T06:55:00.307Z,14.80
2022-10-12T06:57:27.506Z,14.80
2022-10-12T07:00:01.207Z,14.80
2022-10-12T07:02:28.426Z,14.80
2022-10-12T07:05:02.720Z,14.80
2022-10-12T07:07:34.370Z,14.80
2022-10-12T07:10:08.152Z,14.80
2022-10-12T07:12:46.391Z,14.80
2022-10-12T07:15:21.260Z,14.80
2022-10-12T07:18:01.141Z,14.80
2022-10-12T07:20:42.127Z,14.90
2022-10-12T07:23:09.741Z,14.90
2022-10-12T07:25:43.249Z,14.90
2022-10-12T07:28:10.441Z,14.90
2022-10-12T07:30:44.440Z,14.90
2022-10-12T07:33:18.224Z,15.00
2022-10-12T07:36:21.602Z,15.00
2022-10-12T07:38:49.798Z,15.10
2022-10-12T07:41:24.423Z,15.20
2022-10-12T07:43:57.892Z,15.20
2022-10-12T07:46:33.678Z,15.30
2022-10-12T07:49:00.998Z,15.40
2022-10-12T07:51:35.398Z,15.40
2022-10-12T07:54:03.088Z,15.50
2022-10-12T07:56:38.118Z,15.60
2022-10-12T07:59:12.399Z,15.70
2022-10-12T08:01:39.530Z,15.70
2022-10-12T08:04:14.389Z,15.80
2022-10-12T08:06:44.775Z,15.80
2022-10-12T08:09:18.250Z,15.80
2022-10-12T08:11:47.081Z,15.90
2022-10-12T08:14:22.655Z,15.90
2022-10-12T08:16:56.232Z,15.80
2022-10-12T08:19:44.170Z,15.80
2022-10-12T08:22:19.448Z,15.80
2022-10-12T08:24:46.942Z,15.90
2022-10-12T08:27:21.131Z,16.10
2022-10-12T08:29:55.331Z,16.30
2022-10-12T08:32:29.414Z,16.50
2022-10-12T08:34:56.546Z,16.70
2022-10-12T08:37:30.110Z,16.80
2022-10-12T08:40:02.871Z,16.80
2022-10-12T08:42:47.235Z,16.70
2022-10-12T08:45:20.531Z,16.70
2022-10-12T08:48:00.212Z,16.70
2022-10-12T08:50:36.441Z,16.70
2022-10-12T08:53:48.305Z,16.80
2022-10-12T08:56:27.268Z,16.90
2022-10-12T08:59:02.486Z,17.00
2022-10-12T09:01:37.111Z,17.10
2022-10-12T09:04:23.240Z,17.10
2022-10-12T09:07:02.477Z,17.10
2022-10-12T09:10:01.592Z,17.30
2022-10-12T09:12:51.065Z,17.50
2022-10-12T09:15:42.502Z,17.80
2022-10-12T09:18:45.357Z,18.00
2022-10-12T09:21:25.272Z,18.50
2022-10-12T09:23:55.087Z,18.80
2022-10-12T09:26:33.237Z,18.90
2022-10-12T09:29:00.975Z,18.90
2022-10-12T09:31:53.273Z,18.80
2022-10-12T09:34:27.587Z,18.70
2022-10-12T09:36:55.967Z,18.60
2022-10-12T09:39:38.674Z,18.50
2022-10-12T09:42:05.952Z,18.60
2022-10-12T09:45:21.371Z,18.60
2022-10-12T09:48:28.209Z,18.80
2022-10-12T09:51:08.209Z,19.10
2022-10-12T09:53:48.322Z,19.40
2022-10-12T09:56:37.179Z,19.70
2022-10-12T09:59:08.012Z,19.70
2022-10-12T10:01:43.249Z,19.70
2022-10-12T10:04:19.416Z,19.50
2022-10-12T10:06:54.492Z,19.40
2022-10-12T10:09:33.383Z,19.30
2022-10-12T10:12:28.388Z,19.30
2022-10-12T10:15:04.684Z,19.20
2022-10-12T10:17:52.710Z,19.10
2022-10-12T10:20:52.309Z,19.20
2022-10-12T10:23:42.193Z,19.40
2022-10-12T10:26:20.244Z,19.70
2022-10-12T10:29:15.493Z,19.70
2022-10-12T10:31:53.272Z,19.80
2022-10-12T10:34:23.332Z,19.90
2022-10-12T10:37:03.278Z,20.10
2022-10-12T10:39:55.252Z,20.20
2022-10-12T10:42:38.279Z,20.30
2022-10-12T10:45:20.497Z,20.40
2022-10-12T10:47:54.638Z,20.50
2022-10-12T10:50:33.958Z,20.60
2022-10-12T10:53:12.353Z,20.80
2022-10-12T10:55:48.861Z,20.90
2022-10-12T10:58:44.273Z,21.00
2022-10-12T11:01:49.026Z,21.10
2022-10-12T11:04:30.253Z,21.10
2022-10-12T11:07:07.952Z,21.10
2022-10-12T11:09:54.255Z,21.00
2022-10-12T11:12:31.225Z,21.10
2022-10-12T11:15:25.428Z,21.20
2022-10-12T11:18:33.222Z,21.40
2022-10-12T11:21:13.617Z,21.50
2022-10-12T11:24:06.278Z,21.60
2022-10-12T11:26:38.910Z,21.60
2022-10-12T11:29:13.237Z,21.70
2022-10-12T11:32:03.933Z,21.70
2022-10-12T11:35:02.228Z,21.60
2022-10-12T11:37:43.968Z,21.70
2022-10-12T11:43:48.532Z,21.70
2022-10-12T11:46:26.271Z,21.80
2022-10-12T11:49:08.343Z,21.80
2022-10-12T11:51:42.272Z,21.90
2022-10-12T11:54:28.742Z,22.00
2022-10-12T11:57:11.162Z,22.00
2022-10-12T11:59:46.223Z,21.90
2022-10-12T12:02:24.692Z,21.90
2022-10-12T12:04:52.980Z,21.80
2022-10-12T12:07:30.273Z,21.80
2022-10-12T12:09:57.503Z,21.80
2022-10-12T12:12:36.122Z,21.80
2022-10-12T12:15:19.311Z,21.80
2022-10-12T12:18:33.555Z,21.80
2022-10-12T12:21:17.172Z,21.70
2022-10-12T12:23:55.186Z,21.60
2022-10-12T12:26:38.344Z,21.60
2022-10-12T12:29:29.279Z,21.50
2022-10-12T12:32:01.177Z,21.50
2022-10-12T12:34:36.221Z,21.50
2022-10-12T12:37:12.683Z,21.60
2022-10-12T12:39:51.231Z,21.60
2022-10-12T12:42:24.841Z,21.60
2022-10-12T12:44:59.481Z,21.50
2022-10-12T12:47:46.852Z,21.50
2022-10-12T12:50:44.332Z,21.40
2022-10-12T12:53:22.429Z,21.30
2022-10-12T12:56:22.139Z,21.20
2022-10-12T12:59:35.311Z,21.10
2022-10-12T13:02:27.183Z,21.10
2022-10-12T13:05:23.607Z,21.00
2022-10-12T13:08:18.383Z,20.90
2022-10-12T13:11:23.428Z,20.80
2022-10-12T13:14:09.318Z,20.70
2022-10-12T13:17:33.259Z,20.60
2022-10-12T13:20:24.296Z,20.60
2022-10-12T13:22:54.905Z,20.60
2022-10-12T13:25:40.356Z,20.60
2022-10-12T13:28:16.501Z,20.50
2022-10-12T13:31:09.503Z,20.40
2022-10-12T13:34:12.309Z,20.40
2022-10-12T13:37:03.519Z,20.30
2022-10-12T13:39:47.472Z,20.30
2022-10-12T13:42:18.658Z,20.30
2022-10-12T13:44:55.405Z,20.30
2022-10-12T13:47:32.487Z,20.20
2022-10-12T13:50:07.310Z,20.20
2022-10-12T13:52:35.069Z,20.10
2022-10-12T13:55:21.338Z,20.00
2022-10-12T13:57:50.561Z,20.00
2022-10-12T14:00:28.650Z,19.90
2022-10-12T14:03:00.048Z,19.80
2022-10-12T14:05:37.721Z,19.80
2022-10-12T14:08:20.244Z,19.80
2022-10-12T14:10:56.276Z,19.70
2022-10-12T14:13:38.428Z,19.70
2022-10-12T14:16:07.289Z,19.60
2022-10-12T14:18:43.599Z,19.50
2022-10-12T14:21:27.330Z,19.40
2022-10-12T14:24:14.670Z,19.30
2022-10-12T14:26:55.089Z,19.30
2022-10-12T14:29:53.539Z,19.20
2022-10-12T14:32:24.689Z,19.20
2022-10-12T14:35:31.499Z,19.10
2022-10-12T14:38:06.498Z,19.10
2022-10-12T14:40:42.320Z,19.00
2022-10-12T14:43:15.729Z,18.90
2022-10-12T14:45:50.889Z,18.80
2022-10-12T14:48:29.489Z,18.80
2022-10-12T14:51:03.566Z,18.80
2022-10-12T14:53:37.288Z,18.70
2022-10-12T14:56:05.528Z,18.70
2022-10-12T14:58:39.779Z,18.60
2022-10-12T15:01:07.800Z,18.60
2022-10-12T15:03:42.299Z,18.60
2022-10-12T15:06:14.389Z,18.50
2022-10-12T15:08:49.409Z,18.50
2022-10-12T15:11:17.019Z,18.50
2022-10-12T15:13:51.622Z,18.40
2022-10-12T15:16:22.610Z,18.40
2022-10-12T15:19:03.259Z,18.40
2022-10-12T15:21:37.188Z,18.30
2022-10-12T15:24:21.489Z,18.30
2022-10-12T15:26:55.677Z,18.20
2022-10-12T15:29:29.710Z,18.20
2022-10-12T15:31:58.804Z,18.10
2022-10-12T15:34:33.904Z,18.10
2022-10-12T15:37:04.166Z,18.10
2022-10-12T15:39:40.303Z,18.10
2022-10-12T15:42:07.754Z,18.00
2022-10-12T15:44:48.265Z,18.00
2022-10-12T15:47:15.740Z,17.90
2022-10-12T15:49:49.399Z,17.90
2022-10-12T15:52:18.010Z,17.90
2022-10-12T15:54:51.270Z,17.90
2022-10-12T15:57:25.253Z,17.80
2022-10-12T15:59:53.999Z,17.80
2022-10-12T16:02:30.459Z,17.80
2022-10-12T16:04:58.031Z,17.70
2022-10-12T16:07:31.679Z,17.70
2022-10-12T16:09:59.326Z,17.70
2022-10-12T16:12:33.400Z,17.70
2022-10-12T16:15:07.641Z,17.60
2022-10-12T16:17:41.448Z,17.60
2022-10-12T16:20:22.899Z,17.50
2022-10-12T16:23:04.462Z,17.50
2022-10-12T16:25:38.431Z,17.40
2022-10-12T16:28:12.366Z,17.40
2022-10-12T16:30:44.761Z,17.40
2022-10-12T16:33:19.304Z,17.40
2022-10-12T16:35:49.661Z,17.30
2022-10-12T16:38:26.693Z,17.30
2022-10-12T16:40:53.773Z,17.20
2022-10-12T16:43:27.470Z,17.20
2022-10-12T16:45:57.960Z,17.10
2022-10-12T16:48:33.073Z,17.10
2022-10-12T16:51:01.077Z,17.00
2022-10-12T16:53:35.353Z,17.00
2022-10-12T16:56:03.524Z,17.00
2022-10-12T16:58:40.485Z,16.90
2022-10-12T17:01:23.015Z,16.90
2022-10-12T17:04:03.695Z,16.80
2022-10-12T17:06:31.544Z,16.80
2022-10-12T17:09:06.370Z,16.80
2022-10-12T17:11:39.443Z,16.80
2022-10-12T17:14:15.453Z,16.70
2022-10-12T17:16:55.348Z,16.70
2022-10-12T17:19:34.104Z,16.70
2022-10-12T17:22:20.403Z,16.70
2022-10-12T17:24:55.469Z,16.60
2022-10-12T17:27:22.953Z,16.60
2022-10-12T17:29:56.363Z,16.50
2022-10-12T17:32:24.078Z,16.50
2022-10-12T17:34:58.477Z,16.50
2022-10-12T17:37:32.352Z,16.40
2022-10-12T17:40:06.327Z,16.40
2022-10-12T17:42:40.389Z,16.40
2022-10-12T17:45:14.483Z,16.40
2022-10-12T17:47:41.956Z,16.40
2022-10-12T17:50:16.404Z,16.40
2022-10-12T17:52:43.867Z,16.40
2022-10-12T17:55:36.548Z,16.40
2022-10-12T17:58:11.415Z,16.40
2022-10-12T18:00:45.383Z,16.40
2022-10-12T18:03:13.061Z,16.40
2022-10-12T18:05:47.557Z,16.40
2022-10-12T18:08:14.930Z,16.30
2022-10-12T18:10:42.531Z,16.30
2022-10-12T18:13:17.320Z,16.30
2022-10-12T18:15:44.648Z,16.30
2022-10-12T18:18:18.588Z,16.30
2022-10-12T18:20:52.618Z,16.30
2022-10-12T18:23:26.315Z,16.20
2022-10-12T18:26:00.692Z,16.20
2022-10-12T18:28:34.691Z,16.10
2022-10-12T18:31:09.413Z,16.10
2022-10-12T18:33:36.798Z,16.00
2022-10-12T18:36:13.578Z,15.90
2022-10-12T18:38:49.337Z,15.90
2022-10-12T18:41:19.475Z,15.80
2022-10-12T18:43:53.598Z,15.70
2022-10-12T18:46:21.517Z,15.70
2022-10-12T18:48:55.448Z,15.60
2022-10-12T18:51:30.237Z,15.50
2022-10-12T18:54:11.421Z,15.50
2022-10-12T18:56:39.074Z,15.40
2022-10-12T18:59:14.430Z,15.30
2022-10-12T19:01:42.462Z,15.30
2022-10-12T19:04:16.411Z,15.30
2022-10-12T19:06:44.316Z,15.30
2022-10-12T19:09:20.412Z,15.20
2022-10-12T19:11:54.316Z,15.20
2022-10-12T19:14:21.733Z,15.10
2022-10-12T19:16:51.177Z,15.10
2022-10-12T19:19:26.553Z,15.10
2022-10-12T19:22:07.352Z,15.10
2022-10-12T19:24:34.990Z,15.10
2022-10-12T19:27:10.578Z,15.10
2022-10-12T19:29:43.514Z,15.10
2022-10-12T19:32:20.006Z,15.10
2022-10-12T19:34:50.535Z,15.10
2022-10-12T19:37:24.553Z,15.00
2022-10-12T19:39:58.448Z,15.00
2022-10-12T19:42:32.362Z,14.90
2022-10-12T19:45:09.278Z,14.80
2022-10-12T19:47:36.496Z,14.80
2022-10-12T19:50:03.950Z,14.80
2022-10-12T19:52:38.997Z,14.70
2022-10-12T19:55:06.318Z,14.60
2022-10-12T19:57:38.921Z,14.60
2022-10-12T20:00:15.342Z,14.60
2022-10-12T20:02:49.372Z,14.50
2022-10-12T20:05:16.732Z,14.50
2022-10-12T20:07:50.302Z,14.40
2022-10-12T20:10:17.843Z,14.40
2022-10-12T20:12:51.567Z,14.40
2022-10-12T20:15:18.863Z,14.40
2022-10-12T20:17:52.564Z,14.40
2022-10-12T20:20:39.618Z,14.40
2022-10-12T20:23:13.559Z,14.40
2022-10-12T20:25:45.660Z,14.30
2022-10-12T20:28:20.486Z,14.30
2022-10-12T20:30:49.300Z,14.30
2022-10-12T20:33:23.326Z,14.20
2022-10-12T20:35:50.495Z,14.10
2022-10-12T20:38:25.302Z,14.10
2022-10-12T20:41:15.406Z,14.00
2022-10-12T20:43:49.419Z,13.90
2022-10-12T20:46:19.779Z,13.90
2022-10-12T20:48:57.448Z,13.80
2022-10-12T20:51:31.702Z,13.80
2022-10-12T20:54:08.526Z,13.70
2022-10-12T20:56:40.902Z,13.70
2022-10-12T20:59:14.541Z,13.70
2022-10-12T21:01:49.400Z,13.60
2022-10-12T21:04:23.411Z,13.60
2022-10-12T21:06:50.573Z,13.60
2022-10-12T21:09:24.901Z,13.60
2022-10-12T21:11:58.561Z,13.60
2022-10-12T21:14:28.524Z,13.60
2022-10-12T21:17:02.594Z,13.60
2022-10-12T21:19:51.484Z,13.60
2022-10-12T21:22:25.553Z,13.60
2022-10-12T21:24:54.194Z,13.50
2022-10-12T21:27:28.585Z,13.40
2022-10-12T21:29:58.770Z,13.40
2022-10-12T21:32:32.399Z,13.40
2022-10-12T21:34:59.582Z,13.40
2022-10-12T21:37:36.468Z,13.40
2022-10-12T21:40:03.797Z,13.30
2022-10-12T21:42:37.351Z,13.30
2022-10-12T21:45:05.090Z,13.30
2022-10-12T21:47:39.448Z,13.20
2022-10-12T21:50:09.393Z,13.20
2022-10-12T21:52:44.354Z,13.20
2022-10-12T21:55:19.333Z,13.20
2022-10-12T21:57:53.448Z,13.20
2022-10-12T22:00:20.828Z,13.10
2022-10-12T22:02:54.664Z,13.00
2022-10-12T22:05:22.045Z,13.00
2022-10-12T22:07:55.498Z,13.00
2022-10-12T22:10:25.684Z,12.90
2022-10-12T22:13:01.334Z,12.90
2022-10-12T22:15:28.514Z,12.90
2022-10-12T22:18:02.357Z,12.90
2022-10-12T22:20:53.453Z,12.90
2022-10-12T22:23:20.991Z,12.90
2022-10-12T22:25:55.463Z,12.90
2022-10-12T22:28:23.063Z,12.90
2022-10-12T22:30:56.353Z,12.80
2022-10-12T22:33:31.402Z,12.80
2022-10-12T22:36:00.421Z,12.80
2022-10-12T22:38:35.523Z,12.70
2022-10-12T22:41:12.653Z,12.70
2022-10-12T22:43:40.662Z,12.70
2022-10-12T22:46:15.451Z,12.60
2022-10-12T22:48:42.683Z,12.60
2022-10-12T22:51:17.542Z,12.60
2022-10-12T22:53:45.312Z,12.60
2022-10-12T22:56:23.522Z,12.60
2022-10-12T22:59:05.301Z,12.50
2022-10-12T23:01:33.112Z,12.50
2022-10-12T23:04:08.463Z,12.50
2022-10-12T23:06:36.381Z,12.50
2022-10-12T23:09:11.360Z,12.50
2022-10-12T23:11:38.812Z,12.40
2022-10-12T23:14:12.552Z,12.40
2022-10-12T23:16:39.771Z,12.40
2022-10-12T23:19:27.712Z,12.50
2022-10-12T23:21:55.143Z,12.50
2022-10-12T23:24:29.446Z,12.50
2022-10-12T23:26:56.913Z,12.40
2022-10-12T23:29:30.422Z,12.40
2022-10-12T23:31:57.692Z,12.30
2022-10-12T23:34:31.761Z,12.30
2022-10-12T23:37:07.612Z,12.30
2022-10-12T23:39:35.684Z,12.20
2022-10-12T23:42:09.532Z,12.20
2022-10-12T23:44:43.441Z,12.20
2022-10-12T23:47:10.851Z,12.20
2022-10-12T23:49:46.445Z,12.20
2022-10-12T23:52:13.931Z,12.30
2022-10-12T23:54:47.543Z,12.30
2022-10-12T23:57:45.243Z,12.30
